createdAt,value
2022-10-20T00:01:24.905Z,8.43
2022-10-20T00:03:58.130Z,9.55
2022-10-20T00:06:33.283Z,9.00
2022-10-20T00:09:07.708Z,6.95
2022-10-20T00:11:40.519Z,9.20
2022-10-20T00:14:13.485Z,10.70
2022-10-20T00:19:18.928Z,9.00
2022-10-20T00:21:51.708Z,9.95
2022-10-20T00:24:26.098Z,9.18
2022-10-20T00:26:58.826Z,12.48
2022-10-20T00:29:33.412Z,12.82
2022-10-20T00:32:06.311Z,9.55
2022-10-20T00:34:39.125Z,12.93
2022-10-20T00:37:11.856Z,9.50
2022-10-20T00:39:45.924Z,9.00
2022-10-20T00:42:19.836Z,9.27
2022-10-20T00:44:56.147Z,9.75
2022-10-20T00:47:40.007Z,8.80
2022-10-20T00:50:17.094Z,9.55
2022-10-20T00:52:50.567Z,24.90
2022-10-20T00:55:27.974Z,11.00
2022-10-20T00:58:02.132Z,12.38
2022-10-20T01:00:35.258Z,11.75
2022-10-20T01:03:09.647Z,9.10
2022-10-20T01:05:42.484Z,10.32
2022-10-20T01:08:15.260Z,9.43
2022-10-20T01:10:57.817Z,9.90
2022-10-20T01:13:39.658Z,10.70
2022-10-20T01:16:20.880Z,8.15
2022-10-20T01:19:01.961Z,8.50
2022-10-20T01:22:09.660Z,9.13
2022-10-20T01:25:02.111Z,9.93
2022-10-20T01:27:39.500Z,9.02
2022-10-20T01:30:15.226Z,7.45
2022-10-20T01:33:12.500Z,9.65
2022-10-20T01:35:56.111Z,9.45
2022-10-20T01:38:37.945Z,8.82
2022-10-20T01:41:19.082Z,8.80
2022-10-20T01:43:54.533Z,8.38
2022-10-20T01:46:28.994Z,10.07
2022-10-20T01:49:04.372Z,12.57
2022-10-20T01:51:37.129Z,11.10
2022-10-20T01:54:21.722Z,12.93
2022-10-20T01:57:10.490Z,8.50
2022-10-20T02:00:04.959Z,8.23
2022-10-20T02:02:55.376Z,9.68
2022-10-20T02:05:39.917Z,10.25
2022-10-20T02:08:19.909Z,10.65
2022-10-20T02:10:57.008Z,8.15
2022-10-20T02:13:32.066Z,9.07
2022-10-20T02:16:12.573Z,10.10
2022-10-20T02:18:48.551Z,9.10
2022-10-20T02:21:21.521Z,11.35
2022-10-20T02:23:55.888Z,11.52
2022-10-20T02:26:30.817Z,13.13
2022-10-20T02:29:11.648Z,10.25
2022-10-20T02:31:46.644Z,10.30
2022-10-20T02:34:19.438Z,11.68
2022-10-20T02:36:55.829Z,13.40
2022-10-20T02:39:28.665Z,10.88
2022-10-20T02:42:01.591Z,12.88
2022-10-20T02:44:34.651Z,11.13
2022-10-20T02:49:41.480Z,12.40
2022-10-20T02:52:14.265Z,11.15
2022-10-20T02:54:47.260Z,10.27
2022-10-20T02:57:20.073Z,11.10
2022-10-20T02:59:52.852Z,8.80
2022-10-20T03:02:27.016Z,10.80
2022-10-20T03:04:59.962Z,10.85
2022-10-20T03:10:06.470Z,10.55
2022-10-20T03:12:39.239Z,11.77
2022-10-20T03:15:12.598Z,15.18
2022-10-20T03:17:46.681Z,11.50
2022-10-20T03:20:19.443Z,9.98
2022-10-20T03:22:52.451Z,14.63
2022-10-20T03:25:25.259Z,11.35
2022-10-20T03:27:58.029Z,11.90
2022-10-20T03:30:30.824Z,11.50
2022-10-20T03:33:05.777Z,11.80
2022-10-20T03:35:38.536Z,9.95
2022-10-20T03:38:11.445Z,11.35
2022-10-20T03:40:44.299Z,11.63
2022-10-20T03:43:17.315Z,13.25
2022-10-20T03:48:24.085Z,15.15
2022-10-20T03:50:56.806Z,12.93
2022-10-20T03:53:29.730Z,14.60
2022-10-20T03:56:06.790Z,15.60
2022-10-20T03:58:39.468Z,16.60
2022-10-20T04:01:15.473Z,13.20
2022-10-20T04:03:49.719Z,13.85
2022-10-20T04:06:22.406Z,12.70
2022-10-20T04:08:55.309Z,14.38
2022-10-20T04:14:00.928Z,16.73
2022-10-20T04:19:07.678Z,15.73
2022-10-20T04:21:40.453Z,17.60
2022-10-20T04:24:13.268Z,17.10
2022-10-20T04:26:46.027Z,16.58
2022-10-20T04:29:18.895Z,16.52
2022-10-20T04:31:54.264Z,22.83
2022-10-20T04:34:28.602Z,15.27
2022-10-20T04:37:01.333Z,25.00
2022-10-20T04:39:34.247Z,18.40
2022-10-20T04:44:40.046Z,19.27
2022-10-20T04:49:47.154Z,17.25
2022-10-20T04:52:20.781Z,19.88
2022-10-20T04:54:53.476Z,16.92
2022-10-20T04:57:26.363Z,18.63
2022-10-20T04:59:59.137Z,16.27
2022-10-20T05:02:32.041Z,16.75
2022-10-20T05:05:07.067Z,18.30
2022-10-20T05:07:40.119Z,18.13
2022-10-20T05:10:13.130Z,15.27
2022-10-20T05:12:45.902Z,19.38
2022-10-20T05:15:18.753Z,20.98
2022-10-20T05:17:51.613Z,16.40
2022-10-20T05:20:25.737Z,16.75
2022-10-20T05:22:58.609Z,17.80
2022-10-20T05:25:36.606Z,16.77
2022-10-20T05:28:09.881Z,17.00
2022-10-20T05:33:15.565Z,16.42
2022-10-20T05:35:50.186Z,19.15
2022-10-20T05:38:23.173Z,18.58
2022-10-20T05:40:56.019Z,18.05
2022-10-20T05:43:28.889Z,18.65
2022-10-20T05:46:02.587Z,20.02
2022-10-20T05:48:39.482Z,17.20
2022-10-20T05:51:19.236Z,16.48
2022-10-20T05:53:52.735Z,20.00
2022-10-20T05:56:27.392Z,19.27
2022-10-20T05:59:03.173Z,14.88
2022-10-20T06:01:47.978Z,15.80
2022-10-20T06:04:24.272Z,16.48
2022-10-20T06:06:59.184Z,16.38
2022-10-20T06:09:36.742Z,16.48
2022-10-20T06:12:09.793Z,17.75
2022-10-20T06:17:15.597Z,18.65
2022-10-20T06:19:48.472Z,16.55
2022-10-20T06:24:55.492Z,20.92
2022-10-20T06:30:01.632Z,18.02
2022-10-20T06:32:36.520Z,19.33
2022-10-20T06:35:10.115Z,16.65
2022-10-20T06:37:44.526Z,19.23
2022-10-20T06:40:17.641Z,20.55
2022-10-20T06:42:52.680Z,20.83
2022-10-20T06:45:28.411Z,19.95
2022-10-20T06:48:01.658Z,20.98
2022-10-20T06:50:34.958Z,17.73
2022-10-20T06:53:11.881Z,19.67
2022-10-20T06:56:02.521Z,20.67
2022-10-20T06:58:37.226Z,21.33
2022-10-20T07:01:16.438Z,20.92
2022-10-20T07:03:50.390Z,20.50
2022-10-20T07:06:24.868Z,16.98
2022-10-20T07:09:05.361Z,20.35
2022-10-20T07:11:38.510Z,17.77
2022-10-20T07:14:14.813Z,20.50
2022-10-20T07:16:47.995Z,21.35
2022-10-20T07:19:22.263Z,19.15
2022-10-20T07:21:57.318Z,19.50
2022-10-20T07:24:35.070Z,18.13
2022-10-20T07:27:08.175Z,21.95
2022-10-20T07:29:42.788Z,17.23
2022-10-20T07:32:17.672Z,18.30
2022-10-20T07:34:52.357Z,20.30
2022-10-20T07:37:25.392Z,18.42
2022-10-20T07:42:35.673Z,19.95
2022-10-20T07:45:09.766Z,29.08
2022-10-20T07:47:46.759Z,27.70
2022-10-20T07:50:21.275Z,20.10
2022-10-20T07:52:54.939Z,21.10
2022-10-20T07:55:38.772Z,25.08
2022-10-20T07:58:12.107Z,20.42
2022-10-20T08:03:18.010Z,20.23
2022-10-20T08:08:23.989Z,17.80
2022-10-20T08:13:32.974Z,22.00
2022-10-20T08:16:08.364Z,21.02
2022-10-20T08:21:28.253Z,19.67
2022-10-20T08:24:02.570Z,19.83
2022-10-20T08:26:37.164Z,22.08
2022-10-20T08:29:12.258Z,19.42
2022-10-20T08:31:46.138Z,16.33
2022-10-20T08:34:19.261Z,17.92
2022-10-20T08:39:31.091Z,19.25
2022-10-20T08:42:09.204Z,17.50
2022-10-20T08:44:47.275Z,17.48
2022-10-20T08:47:30.880Z,15.80
2022-10-20T08:50:09.790Z,22.08
2022-10-20T08:52:47.384Z,16.58
2022-10-20T08:55:27.443Z,16.02
2022-10-20T08:58:05.348Z,17.83
2022-10-20T09:00:44.444Z,17.70
2022-10-20T09:03:22.066Z,17.38
2022-10-20T09:06:03.050Z,25.05
2022-10-20T09:08:46.212Z,16.27
2022-10-20T09:14:09.156Z,18.42
2022-10-20T09:16:59.943Z,19.98
2022-10-20T09:19:40.194Z,16.23
2022-10-20T09:22:14.844Z,18.88
2022-10-20T09:24:55.825Z,17.00
2022-10-20T09:27:35.789Z,16.17
2022-10-20T09:30:19.351Z,18.60
2022-10-20T09:32:54.733Z,19.75
2022-10-20T09:35:35.636Z,15.02
2022-10-20T09:38:26.754Z,19.42
2022-10-20T09:41:15.793Z,18.27
2022-10-20T09:43:57.300Z,18.33
2022-10-20T09:46:38.704Z,19.67
2022-10-20T09:49:25.317Z,20.10
2022-10-20T09:51:59.261Z,22.42
2022-10-20T09:54:32.762Z,21.15
2022-10-20T09:57:10.149Z,20.30
2022-10-20T09:59:49.604Z,22.35
2022-10-20T10:02:36.089Z,20.00
2022-10-20T10:05:21.367Z,23.67
2022-10-20T10:08:10.336Z,20.20
2022-10-20T10:10:45.310Z,19.40
2022-10-20T10:13:25.123Z,20.55
2022-10-20T10:16:08.879Z,21.23
2022-10-20T10:18:57.420Z,18.27
2022-10-20T10:21:34.914Z,18.77
2022-10-20T10:24:40.283Z,16.63
2022-10-20T10:27:22.038Z,17.85
2022-10-20T10:29:58.047Z,20.45
2022-10-20T10:32:34.969Z,22.02
2022-10-20T10:35:21.310Z,18.40
2022-10-20T10:37:55.435Z,20.23
2022-10-20T10:40:38.055Z,19.92
2022-10-20T10:43:29.749Z,22.95
2022-10-20T10:46:12.318Z,16.40
2022-10-20T10:49:11.499Z,19.57
2022-10-20T10:52:00.702Z,20.23
2022-10-20T10:55:48.876Z,18.30
2022-10-20T10:58:41.643Z,17.00
2022-10-20T11:01:27.184Z,21.75
2022-10-20T11:04:19.818Z,15.95
2022-10-20T11:07:02.443Z,21.33
2022-10-20T11:09:47.514Z,19.95
2022-10-20T11:12:43.185Z,18.88
2022-10-20T11:15:28.835Z,23.17
2022-10-20T11:18:11.916Z,20.50
2022-10-20T11:20:54.468Z,24.20
2022-10-20T11:24:06.538Z,18.42
2022-10-20T11:26:41.987Z,17.13
2022-10-20T11:29:20.497Z,18.13
2022-10-20T11:31:58.921Z,16.55
2022-10-20T11:34:39.003Z,16.98
2022-10-20T11:37:20.636Z,15.38
2022-10-20T11:40:05.987Z,19.27
2022-10-20T11:42:45.270Z,18.40
2022-10-20T11:45:30.516Z,17.73
2022-10-20T11:48:14.008Z,14.95
2022-10-20T11:51:21.571Z,17.58
2022-10-20T11:54:19.553Z,19.83
2022-10-20T11:57:11.930Z,18.55
2022-10-20T12:00:06.184Z,18.83
2022-10-20T12:03:14.600Z,21.10
2022-10-20T12:06:03.365Z,20.23
2022-10-20T12:09:02.881Z,19.27
2022-10-20T12:11:47.828Z,21.00
2022-10-20T12:14:27.697Z,18.85
2022-10-20T12:17:28.586Z,16.92
2022-10-20T12:20:38.967Z,21.77
2022-10-20T12:24:03.635Z,22.00
2022-10-20T12:26:56.588Z,19.48
2022-10-20T12:30:30.435Z,19.52
2022-10-20T12:33:21.040Z,20.00
2022-10-20T12:36:15.084Z,19.60
2022-10-20T12:38:50.701Z,20.77
2022-10-20T12:41:29.356Z,18.33
2022-10-20T12:44:04.802Z,25.20
2022-10-20T12:46:46.935Z,21.63
2022-10-20T12:49:29.469Z,23.47
2022-10-20T12:52:03.987Z,21.02
2022-10-20T12:54:41.863Z,19.05
2022-10-20T12:57:31.984Z,21.95
2022-10-20T13:00:07.775Z,21.80
2022-10-20T13:02:53.604Z,19.35
2022-10-20T13:05:54.640Z,21.63
2022-10-20T13:08:31.594Z,23.83
2022-10-20T13:11:47.658Z,16.67
2022-10-20T13:14:54.294Z,18.80
2022-10-20T13:17:37.759Z,21.83
2022-10-20T13:20:23.836Z,23.80
2022-10-20T13:25:40.230Z,18.10
2022-10-20T13:28:19.891Z,22.55
2022-10-20T13:31:16.251Z,20.48
2022-10-20T13:34:04.677Z,24.88
2022-10-20T13:36:54.282Z,19.10
2022-10-20T13:39:38.906Z,15.98
2022-10-20T13:42:34.502Z,21.88
2022-10-20T13:45:18.785Z,22.02
2022-10-20T13:48:08.100Z,19.25
2022-10-20T13:50:44.264Z,22.80
2022-10-20T13:53:25.903Z,25.48
2022-10-20T13:56:03.729Z,17.10
2022-10-20T13:58:36.739Z,14.90
2022-10-20T14:03:57.111Z,22.75
2022-10-20T14:06:35.315Z,18.38
2022-10-20T14:09:18.129Z,19.67
2022-10-20T14:11:55.303Z,20.13
2022-10-20T14:14:30.452Z,15.15
2022-10-20T14:17:05.337Z,18.25
2022-10-20T14:19:39.083Z,17.52
2022-10-20T14:22:18.548Z,15.38
2022-10-20T14:24:53.842Z,16.95
2022-10-20T14:27:31.289Z,18.20
2022-10-20T14:30:06.595Z,17.30
2022-10-20T14:32:41.333Z,16.45
2022-10-20T14:35:26.233Z,19.83
2022-10-20T14:38:03.379Z,16.67
2022-10-20T14:40:39.341Z,14.02
2022-10-20T14:43:18.581Z,17.15
2022-10-20T14:45:59.906Z,19.48
2022-10-20T14:48:39.258Z,11.57
2022-10-20T14:51:35.586Z,15.80
2022-10-20T14:57:31.417Z,14.68
2022-10-20T15:00:28.593Z,12.93
2022-10-20T15:03:07.220Z,14.57
2022-10-20T15:05:45.216Z,14.60
2022-10-20T15:08:26.436Z,12.88
2022-10-20T15:11:02.347Z,13.88
2022-10-20T15:13:35.538Z,12.63
2022-10-20T15:16:35.670Z,14.60
2022-10-20T15:19:29.485Z,11.52
2022-10-20T15:22:10.069Z,11.38
2022-10-20T15:24:43.108Z,13.30
2022-10-20T15:32:29.626Z,13.10
2022-10-20T15:35:02.541Z,11.88
2022-10-20T15:37:35.413Z,10.40
2022-10-20T15:40:09.382Z,15.10
2022-10-20T15:42:42.197Z,11.45
2022-10-20T15:45:17.826Z,10.18
2022-10-20T15:47:52.163Z,9.75
2022-10-20T15:50:25.574Z,10.63
2022-10-20T15:52:58.859Z,8.52
2022-10-20T15:55:33.258Z,10.65
2022-10-20T15:58:06.152Z,10.98
2022-10-20T16:03:16.633Z,12.23
2022-10-20T16:05:49.554Z,12.98
2022-10-20T16:10:56.799Z,9.00
2022-10-20T16:13:29.676Z,7.47
2022-10-20T16:16:04.544Z,9.73
2022-10-20T16:18:39.037Z,6.72
2022-10-20T16:21:12.414Z,7.57
2022-10-20T16:23:45.351Z,7.15
2022-10-20T16:28:51.639Z,7.53
2022-10-20T16:34:22.579Z,5.65
2022-10-20T16:36:56.719Z,7.07
2022-10-20T16:39:29.775Z,7.85
2022-10-20T16:44:35.956Z,6.45
2022-10-20T16:49:45.059Z,7.72
2022-10-20T16:52:19.271Z,6.88
2022-10-20T16:54:52.466Z,8.35
2022-10-20T16:57:26.571Z,9.55
2022-10-20T17:00:00.412Z,9.63
2022-10-20T17:02:42.942Z,6.88
2022-10-20T17:05:20.893Z,7.72
2022-10-20T17:07:53.934Z,8.85
2022-10-20T17:13:08.112Z,4.93
2022-10-20T17:15:50.076Z,4.72
2022-10-20T17:18:29.835Z,8.00
2022-10-20T17:21:07.964Z,5.43
2022-10-20T17:23:49.263Z,6.43
2022-10-20T17:26:29.539Z,6.00
2022-10-20T17:29:03.104Z,9.18
2022-10-20T17:31:36.622Z,8.98
2022-10-20T17:34:10.227Z,8.48
2022-10-20T17:36:44.792Z,10.50
2022-10-20T17:39:26.151Z,7.53
2022-10-20T17:41:59.394Z,9.68
2022-10-20T17:45:03.339Z,7.57
2022-10-20T17:47:52.882Z,7.97
2022-10-20T17:50:27.531Z,5.88
2022-10-20T17:53:07.570Z,4.90
2022-10-20T17:55:41.051Z,6.75
2022-10-20T17:58:14.186Z,8.00
2022-10-20T18:00:56.136Z,5.75
2022-10-20T18:03:38.391Z,7.25
2022-10-20T18:06:13.595Z,6.70
2022-10-20T18:09:00.538Z,6.82
2022-10-20T18:11:36.601Z,9.30
2022-10-20T18:14:09.765Z,5.88
2022-10-20T18:16:47.819Z,8.70
2022-10-20T18:19:25.035Z,5.90
2022-10-20T18:21:58.086Z,7.97
2022-10-20T18:27:06.716Z,8.13
2022-10-20T18:29:41.105Z,6.88
2022-10-20T18:32:14.106Z,5.93
2022-10-20T18:34:47.769Z,6.70
2022-10-20T18:37:20.706Z,11.77
2022-10-20T18:42:27.761Z,5.63
2022-10-20T18:47:41.868Z,7.50
2022-10-20T18:50:18.354Z,4.65
2022-10-20T18:52:51.542Z,6.75
2022-10-20T18:57:58.907Z,5.57
2022-10-20T19:00:32.130Z,8.48
2022-10-20T19:03:07.862Z,9.07
2022-10-20T19:05:40.967Z,6.03
2022-10-20T19:10:48.445Z,7.05
2022-10-20T19:13:31.887Z,4.38
2022-10-20T19:16:09.079Z,4.93
2022-10-20T19:18:43.074Z,5.00
2022-10-20T19:21:16.799Z,7.90
2022-10-20T19:23:59.995Z,5.47
2022-10-20T19:26:37.018Z,4.85
2022-10-20T19:29:12.442Z,6.70
2022-10-20T19:31:47.458Z,5.43
2022-10-20T19:34:22.689Z,5.65
2022-10-20T19:36:56.662Z,4.93
2022-10-20T19:39:31.768Z,5.68
2022-10-20T19:42:11.188Z,6.85
2022-10-20T19:44:48.532Z,7.30
2022-10-20T19:47:21.539Z,5.25
2022-10-20T19:50:17.914Z,5.43
2022-10-20T19:52:54.127Z,8.73
2022-10-20T19:55:29.491Z,4.05
2022-10-20T20:00:37.036Z,8.02
2022-10-20T20:03:09.810Z,5.70
2022-10-20T20:05:44.391Z,6.93
2022-10-20T20:08:19.542Z,6.05
2022-10-20T20:10:53.140Z,6.65
2022-10-20T20:13:27.478Z,5.05
2022-10-20T20:16:07.235Z,6.43
2022-10-20T20:18:41.021Z,5.93
2022-10-20T20:21:14.708Z,5.60
2022-10-20T20:23:58.822Z,4.55
2022-10-20T20:26:33.762Z,6.30
2022-10-20T20:29:08.001Z,4.90
2022-10-20T20:31:40.841Z,4.97
2022-10-20T20:34:13.736Z,4.60
2022-10-20T20:36:46.512Z,6.85
2022-10-20T20:39:19.289Z,6.00
2022-10-20T20:41:52.029Z,7.78
2022-10-20T20:44:26.351Z,5.30
2022-10-20T20:46:59.155Z,6.25
2022-10-20T20:49:31.935Z,8.45
2022-10-20T20:52:05.007Z,5.70
2022-10-20T20:57:10.233Z,6.60
2022-10-20T20:59:44.230Z,5.38
2022-10-20T21:02:17.448Z,5.85
2022-10-20T21:04:50.197Z,4.70
2022-10-20T21:07:23.003Z,5.45
2022-10-20T21:09:55.702Z,7.32
2022-10-20T21:12:30.603Z,8.65
2022-10-20T21:15:08.528Z,5.38
2022-10-20T21:17:41.295Z,6.30
2022-10-20T21:20:14.051Z,7.13
2022-10-20T21:22:47.049Z,6.50
2022-10-20T21:27:52.456Z,4.47
2022-10-20T21:30:27.123Z,12.57
2022-10-20T21:33:00.031Z,6.50
2022-10-20T21:35:33.059Z,5.95
2022-10-20T21:40:38.384Z,6.97
2022-10-20T21:43:12.198Z,9.27
2022-10-20T21:45:49.225Z,7.03
2022-10-20T21:48:22.061Z,6.55
2022-10-20T21:50:54.756Z,8.30
2022-10-20T21:53:27.546Z,12.02
2022-10-20T21:56:00.420Z,8.02
2022-10-20T21:58:33.514Z,6.65
2022-10-20T22:03:44.065Z,8.23
2022-10-20T22:06:19.798Z,8.88
2022-10-20T22:08:54.995Z,7.28
2022-10-20T22:11:30.482Z,7.65
2022-10-20T22:14:03.990Z,6.13
2022-10-20T22:16:40.934Z,7.13
2022-10-20T22:19:15.889Z,8.57
2022-10-20T22:21:50.876Z,8.63
2022-10-20T22:24:24.484Z,6.47
2022-10-20T22:26:57.356Z,7.43
2022-10-20T22:29:30.060Z,7.30
2022-10-20T22:32:04.320Z,11.02
2022-10-20T22:34:37.104Z,6.50
2022-10-20T22:37:09.796Z,7.35
2022-10-20T22:39:42.554Z,6.97
2022-10-20T22:42:15.506Z,7.60
2022-10-20T22:44:48.705Z,9.15
2022-10-20T22:47:23.081Z,7.65
2022-10-20T22:49:55.759Z,7.80
2022-10-20T22:52:29.033Z,9.15
2022-10-20T22:55:01.715Z,7.07
2022-10-20T22:57:35.064Z,8.32
2022-10-20T23:00:08.718Z,8.80
2022-10-20T23:02:42.847Z,8.95
2022-10-20T23:05:15.781Z,8.13
2022-10-20T23:07:48.454Z,6.80
2022-10-20T23:10:21.121Z,6.47
2022-10-20T23:12:53.828Z,10.05
2022-10-20T23:15:27.367Z,7.95
2022-10-20T23:18:01.467Z,10.13
2022-10-20T23:20:34.165Z,7.10
2022-10-20T23:23:06.875Z,10.20
2022-10-20T23:25:41.765Z,7.75
2022-10-20T23:28:14.393Z,8.15
2022-10-20T23:30:47.291Z,6.07
2022-10-20T23:33:21.333Z,12.82
2022-10-20T23:35:54.106Z,16.67
2022-10-20T23:38:26.903Z,13.00
2022-10-20T23:40:59.619Z,10.82
2022-10-20T23:43:33.009Z,10.48
2022-10-20T23:46:06.269Z,12.80
2022-10-20T23:48:41.141Z,10.18
2022-10-20T23:51:13.907Z,10.23
2022-10-20T23:53:46.610Z,10.93
2022-10-20T23:56:19.334Z,10.77
2022-10-20T23:58:52.359Z,16.23
